sensor_id;sensor_type;location;lat;lon;timestamp;P1;durP1;ratioP1;P2;durP2;ratioP2
84820;SDS011;75463;50.988;11.332;2024-03-08T00:01:39;36.63;;;20.50;;
84820;SDS011;75463;50.988;11.332;2024-03-08T00:04:05;37.42;;;20.50;;
84820;SDS011;75463;50.988;11.332;2024-03-08T00:06:31;42.38;;;20.75;;
84820;SDS011;75463;50.988;11.332;2024-03-08T00:08:57;37.25;;;19.80;;
84820;SDS011;75463;50.988;11.332;2024-03-08T00:11:22;35.80;;;19.30;;
84820;SDS011;75463;50.988;11.332;2024-03-08T00:13:50;34.75;;;17.63;;
84820;SDS011;75463;50.988;11.332;2024-03-08T00:16:17;40.42;;;20.20;;
84820;SDS011;75463;50.988;11.332;2024-03-08T00:18:44;30.95;;;19.38;;
84820;SDS011;75463;50.988;11.332;2024-03-08T00:21:09;40.20;;;20.65;;
84820;SDS011;75463;50.988;11.332;2024-03-08T00:23:36;33.92;;;18.52;;
84820;SDS011;75463;50.988;11.332;2024-03-08T00:26:02;41.15;;;21.55;;
84820;SDS011;75463;50.988;11.332;2024-03-08T00:28:29;41.05;;;20.92;;
84820;SDS011;75463;50.988;11.332;2024-03-08T00:30:55;39.08;;;19.67;;
84820;SDS011;75463;50.988;11.332;2024-03-08T00:33:21;44.15;;;22.15;;
84820;SDS011;75463;50.988;11.332;2024-03-08T00:35:46;37.92;;;19.75;;
84820;SDS011;75463;50.988;11.332;2024-03-08T00:38:12;41.80;;;21.33;;
84820;SDS011;75463;50.988;11.332;2024-03-08T00:40:38;39.72;;;20.83;;
84820;SDS011;75463;50.988;11.332;2024-03-08T00:43:03;40.78;;;22.65;;
84820;SDS011;75463;50.988;11.332;2024-03-08T00:45:29;43.40;;;21.73;;
84820;SDS011;75463;50.988;11.332;2024-03-08T00:47:54;39.15;;;21.55;;
84820;SDS011;75463;50.988;11.332;2024-03-08T00:50:20;41.17;;;21.88;;
84820;SDS011;75463;50.988;11.332;2024-03-08T00:52:45;39.22;;;19.27;;
84820;SDS011;75463;50.988;11.332;2024-03-08T00:55:11;39.72;;;20.17;;
84820;SDS011;75463;50.988;11.332;2024-03-08T00:57:37;37.28;;;20.67;;
84820;SDS011;75463;50.988;11.332;2024-03-08T01:00:04;40.42;;;20.38;;
84820;SDS011;75463;50.988;11.332;2024-03-08T01:02:34;37.60;;;20.85;;
84820;SDS011;75463;50.988;11.332;2024-03-08T01:05:00;42.47;;;21.15;;
84820;SDS011;75463;50.988;11.332;2024-03-08T01:07:26;40.75;;;21.50;;
84820;SDS011;75463;50.988;11.332;2024-03-08T01:09:51;38.63;;;20.33;;
84820;SDS011;75463;50.988;11.332;2024-03-08T01:12:17;37.50;;;21.15;;
84820;SDS011;75463;50.988;11.332;2024-03-08T01:14:42;37.55;;;20.27;;
84820;SDS011;75463;50.988;11.332;2024-03-08T01:17:07;41.50;;;20.65;;
84820;SDS011;75463;50.988;11.332;2024-03-08T01:19:34;39.67;;;20.00;;
84820;SDS011;75463;50.988;11.332;2024-03-08T01:22:00;39.58;;;20.75;;
84820;SDS011;75463;50.988;11.332;2024-03-08T01:24:25;37.65;;;19.90;;
84820;SDS011;75463;50.988;11.332;2024-03-08T01:26:51;41.60;;;21.73;;
84820;SDS011;75463;50.988;11.332;2024-03-08T01:29:16;39.67;;;21.70;;
84820;SDS011;75463;50.988;11.332;2024-03-08T01:31:42;39.45;;;21.20;;
84820;SDS011;75463;50.988;11.332;2024-03-08T01:34:07;41.05;;;21.73;;
84820;SDS011;75463;50.988;11.332;2024-03-08T01:36:33;44.00;;;22.40;;
84820;SDS011;75463;50.988;11.332;2024-03-08T01:38:58;40.67;;;21.75;;
84820;SDS011;75463;50.988;11.332;2024-03-08T01:41:23;39.63;;;20.00;;
84820;SDS011;75463;50.988;11.332;2024-03-08T01:43:49;40.40;;;20.92;;
84820;SDS011;75463;50.988;11.332;2024-03-08T01:46:15;50.45;;;20.55;;
84820;SDS011;75463;50.988;11.332;2024-03-08T01:48:44;44.38;;;22.83;;
84820;SDS011;75463;50.988;11.332;2024-03-08T01:51:10;45.53;;;20.65;;
84820;SDS011;75463;50.988;11.332;2024-03-08T01:53:37;47.30;;;23.65;;
84820;SDS011;75463;50.988;11.332;2024-03-08T01:56:03;41.17;;;20.55;;
84820;SDS011;75463;50.988;11.332;2024-03-08T01:58:30;42.05;;;22.05;;
84820;SDS011;75463;50.988;11.332;2024-03-08T02:00:58;47.80;;;22.55;;
84820;SDS011;75463;50.988;11.332;2024-03-08T02:03:24;44.47;;;21.75;;
84820;SDS011;75463;50.988;11.332;2024-03-08T02:05:50;43.30;;;21.83;;
84820;SDS011;75463;50.988;11.332;2024-03-08T02:08:16;51.42;;;23.27;;
84820;SDS011;75463;50.988;11.332;2024-03-08T02:10:45;46.45;;;21.48;;
84820;SDS011;75463;50.988;11.332;2024-03-08T02:13:11;53.22;;;24.45;;
84820;SDS011;75463;50.988;11.332;2024-03-08T02:18:24;45.58;;;22.00;;
84820;SDS011;75463;50.988;11.332;2024-03-08T02:20:53;46.72;;;22.73;;
84820;SDS011;75463;50.988;11.332;2024-03-08T02:23:20;44.28;;;22.00;;
84820;SDS011;75463;50.988;11.332;2024-03-08T02:25:46;40.85;;;21.45;;
84820;SDS011;75463;50.988;11.332;2024-03-08T02:28:12;42.17;;;21.90;;
84820;SDS011;75463;50.988;11.332;2024-03-08T02:30:38;49.83;;;24.05;;
84820;SDS011;75463;50.988;11.332;2024-03-08T02:33:06;43.00;;;21.90;;
84820;SDS011;75463;50.988;11.332;2024-03-08T02:35:34;44.05;;;21.63;;
84820;SDS011;75463;50.988;11.332;2024-03-08T02:38:00;46.83;;;21.98;;
84820;SDS011;75463;50.988;11.332;2024-03-08T02:40:25;46.17;;;20.92;;
84820;SDS011;75463;50.988;11.332;2024-03-08T02:42:51;41.47;;;22.02;;
84820;SDS011;75463;50.988;11.332;2024-03-08T02:45:16;44.30;;;21.80;;
84820;SDS011;75463;50.988;11.332;2024-03-08T02:47:42;49.00;;;22.77;;
84820;SDS011;75463;50.988;11.332;2024-03-08T02:50:07;45.42;;;22.88;;
84820;SDS011;75463;50.988;11.332;2024-03-08T02:52:35;55.28;;;23.35;;
84820;SDS011;75463;50.988;11.332;2024-03-08T02:55:01;44.75;;;22.30;;
84820;SDS011;75463;50.988;11.332;2024-03-08T02:57:27;50.75;;;21.48;;
84820;SDS011;75463;50.988;11.332;2024-03-08T02:59:55;49.38;;;25.15;;
84820;SDS011;75463;50.988;11.332;2024-03-08T03:02:20;46.58;;;23.08;;
84820;SDS011;75463;50.988;11.332;2024-03-08T03:04:48;50.25;;;22.95;;
84820;SDS011;75463;50.988;11.332;2024-03-08T03:07:13;51.25;;;24.40;;
84820;SDS011;75463;50.988;11.332;2024-03-08T03:09:57;44.00;;;23.00;;
84820;SDS011;75463;50.988;11.332;2024-03-08T03:12:22;47.33;;;23.83;;
84820;SDS011;75463;50.988;11.332;2024-03-08T03:14:47;43.85;;;21.48;;
84820;SDS011;75463;50.988;11.332;2024-03-08T03:17:13;45.25;;;23.48;;
84820;SDS011;75463;50.988;11.332;2024-03-08T03:19:40;46.33;;;21.27;;
84820;SDS011;75463;50.988;11.332;2024-03-08T03:22:05;39.35;;;21.10;;
84820;SDS011;75463;50.988;11.332;2024-03-08T03:24:32;44.70;;;21.27;;
84820;SDS011;75463;50.988;11.332;2024-03-08T03:26:58;43.50;;;20.45;;
84820;SDS011;75463;50.988;11.332;2024-03-08T03:29:24;38.80;;;19.17;;
84820;SDS011;75463;50.988;11.332;2024-03-08T03:31:50;36.60;;;19.23;;
84820;SDS011;75463;50.988;11.332;2024-03-08T03:34:15;44.83;;;21.85;;
84820;SDS011;75463;50.988;11.332;2024-03-08T03:36:41;44.97;;;21.60;;
84820;SDS011;75463;50.988;11.332;2024-03-08T03:39:10;49.75;;;22.00;;
84820;SDS011;75463;50.988;11.332;2024-03-08T03:41:38;49.35;;;24.42;;
84820;SDS011;75463;50.988;11.332;2024-03-08T03:44:04;48.65;;;21.83;;
84820;SDS011;75463;50.988;11.332;2024-03-08T03:46:31;49.30;;;24.20;;
84820;SDS011;75463;50.988;11.332;2024-03-08T03:48:57;45.45;;;22.83;;
84820;SDS011;75463;50.988;11.332;2024-03-08T03:51:22;42.97;;;21.20;;
84820;SDS011;75463;50.988;11.332;2024-03-08T03:53:47;45.88;;;22.40;;
84820;SDS011;75463;50.988;11.332;2024-03-08T03:56:13;50.40;;;23.77;;
84820;SDS011;75463;50.988;11.332;2024-03-08T03:58:38;55.28;;;24.15;;
84820;SDS011;75463;50.988;11.332;2024-03-08T04:01:04;44.03;;;22.17;;
84820;SDS011;75463;50.988;11.332;2024-03-08T04:03:30;52.45;;;24.08;;
84820;SDS011;75463;50.988;11.332;2024-03-08T04:05:56;49.33;;;24.02;;
84820;SDS011;75463;50.988;11.332;2024-03-08T04:08:21;53.08;;;24.02;;
84820;SDS011;75463;50.988;11.332;2024-03-08T04:10:48;57.58;;;26.10;;
84820;SDS011;75463;50.988;11.332;2024-03-08T04:13:14;47.30;;;22.42;;
84820;SDS011;75463;50.988;11.332;2024-03-08T04:15:40;46.80;;;23.23;;
84820;SDS011;75463;50.988;11.332;2024-03-08T04:18:09;48.88;;;23.60;;
84820;SDS011;75463;50.988;11.332;2024-03-08T04:20:34;44.33;;;23.38;;
84820;SDS011;75463;50.988;11.332;2024-03-08T04:22:59;50.15;;;23.77;;
84820;SDS011;75463;50.988;11.332;2024-03-08T04:25:25;47.15;;;23.20;;
84820;SDS011;75463;50.988;11.332;2024-03-08T04:27:50;43.47;;;23.02;;
84820;SDS011;75463;50.988;11.332;2024-03-08T04:30:17;54.88;;;27.02;;
84820;SDS011;75463;50.988;11.332;2024-03-08T04:32:42;51.17;;;23.88;;
84820;SDS011;75463;50.988;11.332;2024-03-08T04:35:08;50.42;;;23.80;;
84820;SDS011;75463;50.988;11.332;2024-03-08T04:37:33;56.88;;;25.55;;
84820;SDS011;75463;50.988;11.332;2024-03-08T04:39:59;48.97;;;23.15;;
84820;SDS011;75463;50.988;11.332;2024-03-08T04:42:24;55.35;;;24.38;;
84820;SDS011;75463;50.988;11.332;2024-03-08T04:44:51;51.25;;;24.77;;
84820;SDS011;75463;50.988;11.332;2024-03-08T04:47:18;53.53;;;23.52;;
84820;SDS011;75463;50.988;11.332;2024-03-08T04:49:44;43.15;;;22.65;;
84820;SDS011;75463;50.988;11.332;2024-03-08T04:52:09;41.15;;;23.40;;
84820;SDS011;75463;50.988;11.332;2024-03-08T04:54:34;43.17;;;21.58;;
84820;SDS011;75463;50.988;11.332;2024-03-08T04:57:00;43.92;;;21.02;;
84820;SDS011;75463;50.988;11.332;2024-03-08T04:59:26;43.90;;;22.38;;
84820;SDS011;75463;50.988;11.332;2024-03-08T05:01:52;42.42;;;21.02;;
84820;SDS011;75463;50.988;11.332;2024-03-08T05:04:17;49.90;;;23.63;;
84820;SDS011;75463;50.988;11.332;2024-03-08T05:06:43;55.70;;;24.02;;
84820;SDS011;75463;50.988;11.332;2024-03-08T05:09:08;57.30;;;25.27;;
84820;SDS011;75463;50.988;11.332;2024-03-08T05:11:45;53.40;;;23.77;;
84820;SDS011;75463;50.988;11.332;2024-03-08T05:14:12;57.20;;;26.63;;
84820;SDS011;75463;50.988;11.332;2024-03-08T05:16:42;60.88;;;26.20;;
84820;SDS011;75463;50.988;11.332;2024-03-08T05:19:14;54.80;;;26.00;;
84820;SDS011;75463;50.988;11.332;2024-03-08T05:21:46;51.72;;;24.58;;
84820;SDS011;75463;50.988;11.332;2024-03-08T05:24:13;51.22;;;26.52;;
84820;SDS011;75463;50.988;11.332;2024-03-08T05:26:39;58.10;;;28.25;;
84820;SDS011;75463;50.988;11.332;2024-03-08T05:29:05;58.63;;;25.83;;
84820;SDS011;75463;50.988;11.332;2024-03-08T05:31:31;60.17;;;28.10;;
84820;SDS011;75463;50.988;11.332;2024-03-08T05:34:03;57.13;;;26.75;;
84820;SDS011;75463;50.988;11.332;2024-03-08T05:36:29;61.40;;;27.42;;
84820;SDS011;75463;50.988;11.332;2024-03-08T05:38:55;57.72;;;26.95;;
84820;SDS011;75463;50.988;11.332;2024-03-08T05:41:20;55.85;;;27.67;;
84820;SDS011;75463;50.988;11.332;2024-03-08T05:43:45;58.47;;;27.73;;
84820;SDS011;75463;50.988;11.332;2024-03-08T05:46:11;59.47;;;29.40;;
84820;SDS011;75463;50.988;11.332;2024-03-08T05:48:36;55.85;;;26.92;;
84820;SDS011;75463;50.988;11.332;2024-03-08T05:51:02;62.67;;;27.88;;
84820;SDS011;75463;50.988;11.332;2024-03-08T05:53:28;55.28;;;26.70;;
84820;SDS011;75463;50.988;11.332;2024-03-08T05:55:56;56.45;;;26.42;;
84820;SDS011;75463;50.988;11.332;2024-03-08T05:58:22;54.30;;;25.52;;
84820;SDS011;75463;50.988;11.332;2024-03-08T06:00:47;68.97;;;30.17;;
84820;SDS011;75463;50.988;11.332;2024-03-08T06:03:13;65.32;;;30.38;;
84820;SDS011;75463;50.988;11.332;2024-03-08T06:05:38;60.73;;;29.20;;
84820;SDS011;75463;50.988;11.332;2024-03-08T06:08:06;62.63;;;30.13;;
84820;SDS011;75463;50.988;11.332;2024-03-08T06:10:32;62.67;;;28.48;;
84820;SDS011;75463;50.988;11.332;2024-03-08T06:12:58;60.65;;;31.35;;
84820;SDS011;75463;50.988;11.332;2024-03-08T06:15:23;69.00;;;33.15;;
84820;SDS011;75463;50.988;11.332;2024-03-08T06:17:48;69.38;;;32.50;;
84820;SDS011;75463;50.988;11.332;2024-03-08T06:20:14;61.85;;;29.25;;
84820;SDS011;75463;50.988;11.332;2024-03-08T06:22:39;60.80;;;26.80;;
84820;SDS011;75463;50.988;11.332;2024-03-08T06:25:09;61.03;;;29.92;;
84820;SDS011;75463;50.988;11.332;2024-03-08T06:27:43;51.47;;;28.08;;
84820;SDS011;75463;50.988;11.332;2024-03-08T06:30:10;67.97;;;30.67;;
84820;SDS011;75463;50.988;11.332;2024-03-08T06:32:37;56.33;;;27.98;;
84820;SDS011;75463;50.988;11.332;2024-03-08T06:35:03;50.72;;;27.23;;
84820;SDS011;75463;50.988;11.332;2024-03-08T06:37:31;52.50;;;25.83;;
84820;SDS011;75463;50.988;11.332;2024-03-08T06:39:57;55.20;;;27.13;;
84820;SDS011;75463;50.988;11.332;2024-03-08T06:42:22;52.28;;;26.40;;
84820;SDS011;75463;50.988;11.332;2024-03-08T06:44:47;49.97;;;26.83;;
84820;SDS011;75463;50.988;11.332;2024-03-08T06:47:16;39.25;;;23.13;;
84820;SDS011;75463;50.988;11.332;2024-03-08T06:49:42;41.22;;;23.90;;
84820;SDS011;75463;50.988;11.332;2024-03-08T06:52:08;42.92;;;24.23;;
84820;SDS011;75463;50.988;11.332;2024-03-08T06:54:35;40.22;;;22.27;;
84820;SDS011;75463;50.988;11.332;2024-03-08T06:57:04;42.90;;;22.60;;
84820;SDS011;75463;50.988;11.332;2024-03-08T06:59:30;46.38;;;25.00;;
84820;SDS011;75463;50.988;11.332;2024-03-08T07:01:55;36.67;;;21.73;;
84820;SDS011;75463;50.988;11.332;2024-03-08T07:04:21;41.57;;;21.73;;
84820;SDS011;75463;50.988;11.332;2024-03-08T07:06:47;36.58;;;20.08;;
84820;SDS011;75463;50.988;11.332;2024-03-08T07:09:14;38.58;;;22.08;;
84820;SDS011;75463;50.988;11.332;2024-03-08T07:11:41;41.60;;;22.52;;
84820;SDS011;75463;50.988;11.332;2024-03-08T07:14:07;36.30;;;20.63;;
84820;SDS011;75463;50.988;11.332;2024-03-08T07:16:33;36.03;;;20.95;;
84820;SDS011;75463;50.988;11.332;2024-03-08T07:19:00;38.30;;;22.75;;
84820;SDS011;75463;50.988;11.332;2024-03-08T07:21:26;38.20;;;20.95;;
84820;SDS011;75463;50.988;11.332;2024-03-08T07:23:51;35.95;;;19.95;;
84820;SDS011;75463;50.988;11.332;2024-03-08T07:26:34;37.33;;;20.77;;
84820;SDS011;75463;50.988;11.332;2024-03-08T07:29:00;39.33;;;21.80;;
84820;SDS011;75463;50.988;11.332;2024-03-08T07:31:25;42.03;;;22.95;;
84820;SDS011;75463;50.988;11.332;2024-03-08T07:33:51;36.88;;;20.67;;
84820;SDS011;75463;50.988;11.332;2024-03-08T07:36:18;38.85;;;21.00;;
84820;SDS011;75463;50.988;11.332;2024-03-08T07:38:43;36.05;;;21.27;;
84820;SDS011;75463;50.988;11.332;2024-03-08T07:41:11;35.03;;;20.70;;
84820;SDS011;75463;50.988;11.332;2024-03-08T07:43:37;30.77;;;19.17;;
84820;SDS011;75463;50.988;11.332;2024-03-08T07:46:03;35.33;;;20.77;;
84820;SDS011;75463;50.988;11.332;2024-03-08T07:48:28;36.53;;;20.02;;
84820;SDS011;75463;50.988;11.332;2024-03-08T07:50:53;32.00;;;19.00;;
84820;SDS011;75463;50.988;11.332;2024-03-08T07:53:19;33.65;;;20.15;;
84820;SDS011;75463;50.988;11.332;2024-03-08T07:55:44;38.17;;;21.50;;
84820;SDS011;75463;50.988;11.332;2024-03-08T07:58:09;33.28;;;20.27;;
84820;SDS011;75463;50.988;11.332;2024-03-08T08:00:36;33.78;;;19.15;;
84820;SDS011;75463;50.988;11.332;2024-03-08T08:03:01;34.97;;;19.90;;
84820;SDS011;75463;50.988;11.332;2024-03-08T08:05:27;37.28;;;21.13;;
84820;SDS011;75463;50.988;11.332;2024-03-08T08:07:52;39.38;;;20.65;;
84820;SDS011;75463;50.988;11.332;2024-03-08T08:10:18;31.20;;;18.95;;
84820;SDS011;75463;50.988;11.332;2024-03-08T08:15:12;33.92;;;21.30;;
84820;SDS011;75463;50.988;11.332;2024-03-08T08:17:38;32.05;;;18.75;;
84820;SDS011;75463;50.988;11.332;2024-03-08T08:20:04;32.03;;;19.58;;
84820;SDS011;75463;50.988;11.332;2024-03-08T08:22:30;36.22;;;19.63;;
84820;SDS011;75463;50.988;11.332;2024-03-08T08:24:56;31.58;;;20.05;;
84820;SDS011;75463;50.988;11.332;2024-03-08T08:27:21;39.00;;;20.20;;
84820;SDS011;75463;50.988;11.332;2024-03-08T08:29:46;34.97;;;21.20;;
84820;SDS011;75463;50.988;11.332;2024-03-08T08:32:11;30.50;;;19.30;;
84820;SDS011;75463;50.988;11.332;2024-03-08T08:34:37;31.50;;;20.05;;
84820;SDS011;75463;50.988;11.332;2024-03-08T08:37:03;38.40;;;20.47;;
84820;SDS011;75463;50.988;11.332;2024-03-08T08:39:28;30.60;;;19.13;;
84820;SDS011;75463;50.988;11.332;2024-03-08T08:41:53;34.30;;;21.17;;
84820;SDS011;75463;50.988;11.332;2024-03-08T08:44:19;31.80;;;19.33;;
84820;SDS011;75463;50.988;11.332;2024-03-08T08:46:44;31.93;;;20.50;;
84820;SDS011;75463;50.988;11.332;2024-03-08T08:49:09;33.53;;;20.67;;
84820;SDS011;75463;50.988;11.332;2024-03-08T08:51:39;32.60;;;19.63;;
84820;SDS011;75463;50.988;11.332;2024-03-08T08:54:05;34.08;;;19.60;;
84820;SDS011;75463;50.988;11.332;2024-03-08T08:56:31;32.03;;;19.92;;
84820;SDS011;75463;50.988;11.332;2024-03-08T08:58:56;36.47;;;22.95;;
84820;SDS011;75463;50.988;11.332;2024-03-08T09:01:22;32.60;;;20.60;;
84820;SDS011;75463;50.988;11.332;2024-03-08T09:03:48;33.25;;;20.08;;
84820;SDS011;75463;50.988;11.332;2024-03-08T09:06:15;33.60;;;21.13;;
84820;SDS011;75463;50.988;11.332;2024-03-08T09:08:41;34.03;;;18.88;;
84820;SDS011;75463;50.988;11.332;2024-03-08T09:11:06;31.90;;;19.70;;
84820;SDS011;75463;50.988;11.332;2024-03-08T09:13:32;30.67;;;19.58;;
84820;SDS011;75463;50.988;11.332;2024-03-08T09:15:58;32.75;;;19.80;;
84820;SDS011;75463;50.988;11.332;2024-03-08T09:18:24;34.83;;;20.75;;
84820;SDS011;75463;50.988;11.332;2024-03-08T09:20:50;33.20;;;19.23;;
84820;SDS011;75463;50.988;11.332;2024-03-08T09:23:16;30.33;;;18.83;;
84820;SDS011;75463;50.988;11.332;2024-03-08T09:25:42;31.67;;;19.23;;
84820;SDS011;75463;50.988;11.332;2024-03-08T09:28:08;33.03;;;19.42;;
84820;SDS011;75463;50.988;11.332;2024-03-08T09:30:34;31.27;;;19.48;;
84820;SDS011;75463;50.988;11.332;2024-03-08T09:33:00;33.75;;;19.55;;
84820;SDS011;75463;50.988;11.332;2024-03-08T09:35:25;31.77;;;20.55;;
84820;SDS011;75463;50.988;11.332;2024-03-08T09:37:51;31.08;;;20.27;;
84820;SDS011;75463;50.988;11.332;2024-03-08T09:40:16;31.45;;;19.20;;
84820;SDS011;75463;50.988;11.332;2024-03-08T09:42:44;35.20;;;20.83;;
84820;SDS011;75463;50.988;11.332;2024-03-08T09:45:10;32.90;;;20.20;;
84820;SDS011;75463;50.988;11.332;2024-03-08T09:47:39;31.92;;;19.80;;
84820;SDS011;75463;50.988;11.332;2024-03-08T09:50:07;34.88;;;19.58;;
84820;SDS011;75463;50.988;11.332;2024-03-08T09:52:38;34.65;;;18.90;;
84820;SDS011;75463;50.988;11.332;2024-03-08T09:55:08;31.25;;;19.30;;
84820;SDS011;75463;50.988;11.332;2024-03-08T09:57:36;28.25;;;17.67;;
84820;SDS011;75463;50.988;11.332;2024-03-08T10:00:03;29.25;;;18.92;;
84820;SDS011;75463;50.988;11.332;2024-03-08T10:02:48;27.08;;;16.42;;
84820;SDS011;75463;50.988;11.332;2024-03-08T10:05:17;28.38;;;14.77;;
84820;SDS011;75463;50.988;11.332;2024-03-08T10:07:43;26.52;;;15.75;;
84820;SDS011;75463;50.988;11.332;2024-03-08T10:10:09;28.02;;;15.48;;
84820;SDS011;75463;50.988;11.332;2024-03-08T10:12:37;28.02;;;16.52;;
84820;SDS011;75463;50.988;11.332;2024-03-08T10:15:03;25.25;;;15.80;;
84820;SDS011;75463;50.988;11.332;2024-03-08T10:17:33;23.20;;;14.57;;
84820;SDS011;75463;50.988;11.332;2024-03-08T10:19:59;26.67;;;16.45;;
84820;SDS011;75463;50.988;11.332;2024-03-08T10:22:25;28.60;;;18.15;;
84820;SDS011;75463;50.988;11.332;2024-03-08T10:24:51;30.38;;;17.08;;
84820;SDS011;75463;50.988;11.332;2024-03-08T10:27:16;25.35;;;14.60;;
84820;SDS011;75463;50.988;11.332;2024-03-08T10:29:42;26.05;;;15.88;;
84820;SDS011;75463;50.988;11.332;2024-03-08T10:32:12;21.35;;;13.25;;
84820;SDS011;75463;50.988;11.332;2024-03-08T10:34:37;23.67;;;14.07;;
84820;SDS011;75463;50.988;11.332;2024-03-08T10:37:05;22.73;;;14.20;;
84820;SDS011;75463;50.988;11.332;2024-03-08T10:39:34;23.25;;;13.73;;
84820;SDS011;75463;50.988;11.332;2024-03-08T10:42:02;20.42;;;12.13;;
84820;SDS011;75463;50.988;11.332;2024-03-08T10:47:09;20.55;;;13.20;;
84820;SDS011;75463;50.988;11.332;2024-03-08T10:49:59;26.52;;;14.93;;
84820;SDS011;75463;50.988;11.332;2024-03-08T10:52:47;24.13;;;15.30;;
84820;SDS011;75463;50.988;11.332;2024-03-08T10:55:20;27.00;;;15.10;;
84820;SDS011;75463;50.988;11.332;2024-03-08T10:57:46;20.90;;;12.75;;
84820;SDS011;75463;50.988;11.332;2024-03-08T11:00:14;24.33;;;14.20;;
84820;SDS011;75463;50.988;11.332;2024-03-08T11:02:44;25.00;;;13.95;;
84820;SDS011;75463;50.988;11.332;2024-03-08T11:05:10;19.00;;;11.88;;
84820;SDS011;75463;50.988;11.332;2024-03-08T11:07:46;22.98;;;13.52;;
84820;SDS011;75463;50.988;11.332;2024-03-08T11:10:19;23.58;;;12.73;;
84820;SDS011;75463;50.988;11.332;2024-03-08T11:12:45;19.90;;;13.95;;
84820;SDS011;75463;50.988;11.332;2024-03-08T11:15:12;21.52;;;13.10;;
84820;SDS011;75463;50.988;11.332;2024-03-08T11:17:47;21.45;;;13.52;;
84820;SDS011;75463;50.988;11.332;2024-03-08T11:20:17;21.73;;;12.40;;
84820;SDS011;75463;50.988;11.332;2024-03-08T11:25:38;23.02;;;13.40;;
84820;SDS011;75463;50.988;11.332;2024-03-08T11:28:10;22.33;;;13.70;;
84820;SDS011;75463;50.988;11.332;2024-03-08T11:30:43;25.70;;;15.45;;
84820;SDS011;75463;50.988;11.332;2024-03-08T11:33:13;28.05;;;15.40;;
84820;SDS011;75463;50.988;11.332;2024-03-08T11:35:39;24.38;;;13.90;;
84820;SDS011;75463;50.988;11.332;2024-03-08T11:38:07;20.33;;;12.35;;
84820;SDS011;75463;50.988;11.332;2024-03-08T11:40:33;23.80;;;14.05;;
84820;SDS011;75463;50.988;11.332;2024-03-08T11:43:00;23.05;;;14.32;;
84820;SDS011;75463;50.988;11.332;2024-03-08T11:45:28;25.77;;;15.43;;
84820;SDS011;75463;50.988;11.332;2024-03-08T11:47:53;23.33;;;14.05;;
84820;SDS011;75463;50.988;11.332;2024-03-08T11:50:19;25.48;;;14.63;;
84820;SDS011;75463;50.988;11.332;2024-03-08T11:52:46;22.90;;;15.65;;
84820;SDS011;75463;50.988;11.332;2024-03-08T11:55:11;28.75;;;15.90;;
84820;SDS011;75463;50.988;11.332;2024-03-08T11:57:37;24.90;;;14.25;;
84820;SDS011;75463;50.988;11.332;2024-03-08T12:00:03;22.80;;;14.35;;
84820;SDS011;75463;50.988;11.332;2024-03-08T12:02:35;27.33;;;15.90;;
84820;SDS011;75463;50.988;11.332;2024-03-08T12:05:05;24.30;;;15.70;;
84820;SDS011;75463;50.988;11.332;2024-03-08T12:07:31;26.27;;;14.45;;
84820;SDS011;75463;50.988;11.332;2024-03-08T12:10:18;25.90;;;14.85;;
84820;SDS011;75463;50.988;11.332;2024-03-08T12:12:48;24.50;;;16.08;;
84820;SDS011;75463;50.988;11.332;2024-03-08T12:15:16;21.98;;;13.73;;
84820;SDS011;75463;50.988;11.332;2024-03-08T12:17:43;25.35;;;14.75;;
84820;SDS011;75463;50.988;11.332;2024-03-08T12:20:13;27.05;;;14.07;;
84820;SDS011;75463;50.988;11.332;2024-03-08T12:22:41;25.80;;;15.77;;
84820;SDS011;75463;50.988;11.332;2024-03-08T12:25:07;26.25;;;16.20;;
84820;SDS011;75463;50.988;11.332;2024-03-08T12:30:14;24.33;;;13.13;;
84820;SDS011;75463;50.988;11.332;2024-03-08T12:32:46;24.80;;;14.55;;
84820;SDS011;75463;50.988;11.332;2024-03-08T12:35:19;26.90;;;14.32;;
84820;SDS011;75463;50.988;11.332;2024-03-08T12:37:47;24.55;;;12.95;;
84820;SDS011;75463;50.988;11.332;2024-03-08T12:40:18;23.05;;;13.48;;
84820;SDS011;75463;50.988;11.332;2024-03-08T12:42:45;25.85;;;14.50;;
84820;SDS011;75463;50.988;11.332;2024-03-08T12:45:13;28.80;;;14.32;;
84820;SDS011;75463;50.988;11.332;2024-03-08T12:47:39;27.67;;;16.90;;
84820;SDS011;75463;50.988;11.332;2024-03-08T12:50:07;22.42;;;14.13;;
84820;SDS011;75463;50.988;11.332;2024-03-08T12:52:33;26.92;;;15.95;;
84820;SDS011;75463;50.988;11.332;2024-03-08T12:54:59;26.00;;;14.52;;
84820;SDS011;75463;50.988;11.332;2024-03-08T12:57:31;26.23;;;15.07;;
84820;SDS011;75463;50.988;11.332;2024-03-08T12:59:58;23.83;;;15.68;;
84820;SDS011;75463;50.988;11.332;2024-03-08T13:02:24;25.60;;;14.73;;
84820;SDS011;75463;50.988;11.332;2024-03-08T13:04:49;27.73;;;15.07;;
84820;SDS011;75463;50.988;11.332;2024-03-08T13:07:22;26.00;;;15.10;;
84820;SDS011;75463;50.988;11.332;2024-03-08T13:09:48;25.85;;;14.95;;
84820;SDS011;75463;50.988;11.332;2024-03-08T13:12:14;27.50;;;15.93;;
84820;SDS011;75463;50.988;11.332;2024-03-08T13:14:40;24.75;;;14.75;;
84820;SDS011;75463;50.988;11.332;2024-03-08T13:17:06;26.85;;;13.85;;
84820;SDS011;75463;50.988;11.332;2024-03-08T13:19:35;27.48;;;15.80;;
84820;SDS011;75463;50.988;11.332;2024-03-08T13:22:01;24.77;;;13.77;;
84820;SDS011;75463;50.988;11.332;2024-03-08T13:24:29;25.65;;;15.43;;
84820;SDS011;75463;50.988;11.332;2024-03-08T13:26:54;20.42;;;12.35;;
84820;SDS011;75463;50.988;11.332;2024-03-08T13:29:20;26.33;;;14.68;;
84820;SDS011;75463;50.988;11.332;2024-03-08T13:31:46;26.15;;;14.88;;
84820;SDS011;75463;50.988;11.332;2024-03-08T13:34:14;25.83;;;15.57;;
84820;SDS011;75463;50.988;11.332;2024-03-08T13:36:40;25.38;;;14.25;;
84820;SDS011;75463;50.988;11.332;2024-03-08T13:39:09;27.27;;;15.32;;
84820;SDS011;75463;50.988;11.332;2024-03-08T13:41:41;24.33;;;14.77;;
84820;SDS011;75463;50.988;11.332;2024-03-08T13:44:07;24.70;;;14.02;;
84820;SDS011;75463;50.988;11.332;2024-03-08T13:46:32;26.67;;;13.98;;
84820;SDS011;75463;50.988;11.332;2024-03-08T13:49:02;22.67;;;13.48;;
84820;SDS011;75463;50.988;11.332;2024-03-08T13:51:33;25.98;;;14.10;;
84820;SDS011;75463;50.988;11.332;2024-03-08T13:53:59;24.85;;;13.48;;
84820;SDS011;75463;50.988;11.332;2024-03-08T13:56:25;22.13;;;12.82;;
84820;SDS011;75463;50.988;11.332;2024-03-08T13:58:51;24.02;;;14.35;;
84820;SDS011;75463;50.988;11.332;2024-03-08T14:01:16;26.23;;;14.73;;
84820;SDS011;75463;50.988;11.332;2024-03-08T14:03:42;26.02;;;15.55;;
84820;SDS011;75463;50.988;11.332;2024-03-08T14:06:07;24.83;;;14.73;;
84820;SDS011;75463;50.988;11.332;2024-03-08T14:08:34;27.95;;;15.98;;
84820;SDS011;75463;50.988;11.332;2024-03-08T14:11:02;22.00;;;13.95;;
84820;SDS011;75463;50.988;11.332;2024-03-08T14:13:36;23.13;;;13.10;;
84820;SDS011;75463;50.988;11.332;2024-03-08T14:16:05;24.42;;;15.00;;
84820;SDS011;75463;50.988;11.332;2024-03-08T14:18:30;27.48;;;15.65;;
84820;SDS011;75463;50.988;11.332;2024-03-08T14:20:56;25.20;;;13.77;;